La Grange, TX (78945)

10:12 AM CDT on September 05, 2015 (GMT -0500)
Horton Street | | Change Station
CLOSE
Current Station
Personal Weather Station
Location: La Grange, TX
Elevation: 344 ft
Nearby Weather Stations

Elev 344 ft 29.92 °N, 96.87 °W | Updated 30 seconds ago

Mostly Cloudy
Mostly Cloudy
85.3 °F
Feels Like 99 °F
N
0.0
Wind Variable Wind from East
Gusts 0.0 mph

Today
High -- | Low -- °F
--% Chance of Precip.
Yesterday
High -- | Low -- °F
Precip. -- in
7:06 AM 7:45 PM
Waning Gibbous, 48% visible
Pressure 30.01 in
Visibility 10.0 miles
Clouds Mostly Cloudy 800 ft
Mostly Cloudy 3300 ft
Mostly Cloudy 7000 ft
Heat Index 99 °F
Dew Point 80 °F
Humidity 83%
Rainfall 0.00 in
Snow Depth Not available.
UV 2.0 out of 12
Pollen 8.10 out of 12
Air Quality Not available.
Flu Activity Not available.
METAR K3T5 051455Z AUTO 17005KT 10SM BKN008 BKN033 BKN070 29/27 A3001 RMK AO2 T02910266
Pressure 30.01 in
Visibility 10.0 miles
Clouds Mostly Cloudy 800 ft
Mostly Cloudy 3300 ft
Mostly Cloudy 7000 ft
Heat Index 99 °F
Dew Point 80 °F
Humidity 83%
Rainfall 0.00 in
Snow Depth Not available.
UV 2.0 out of 12
Pollen 8.10 out of 12
Air Quality Not available.
Flu Activity Not available.
METAR K3T5 051455Z AUTO 17005KT 10SM BKN008 BKN033 BKN070 29/27 A3001 RMK AO2 T02910266
Nowcast | as of 9:09 am CDT on September 5, 2015

Through 10 am...isolated showers and patchy sprinkles east of I-35 will move to the north at 10 to 15 mph. Spotty rainfall amounts up to 1/4 inch are possible.

×

10-Day Weather Forecast

×

Almanac

Astronomy

Sep. 05, 2015 Rise Set
Actual Time
Civil Twilight
Nautical Twilight
Astronomical Twilight
Moon
Length of Visible Light
Length of Day
Tomorrow will be .
, % of the Moon is Illuminated

Today's Extremes

State Highs State Lows

Community

WunderPhotos

Upload Photos

1,852,480 photos uploaded!

WunderBlogs® & News

Nearby

Air Quality

  Air Quality AQ Index Pollutant
Not available.

Snow Depth

Station Depth Elevation

Earthquake Activity

City Distance Mag. Time & Date
Minimum magnitude displayed is 2.5.

Coastal Water Temperatures

Place Temperature

Stations

Nearby Weather Stations

Station Location Temp. Windchill Dew Point Humidity Wind Precip. Elev Updated Type